createdAt,value
2023-04-16T00:00:46.894Z,1494.00
2023-04-16T00:01:47.013Z,1510.00
2023-04-16T00:02:47.184Z,1520.00
2023-04-16T00:03:47.289Z,1513.00
2023-04-16T00:04:47.076Z,1511.00
2023-04-16T00:05:47.022Z,1497.00
2023-04-16T00:06:47.024Z,1520.00
2023-04-16T00:07:47.016Z,1519.00
2023-04-16T00:08:47.014Z,1498.00
2023-04-16T00:09:47.001Z,1500.00
2023-04-16T00:10:47.001Z,1497.00
2023-04-16T00:11:47.244Z,1498.00
2023-04-16T00:12:46.992Z,1504.00
2023-04-16T00:13:46.992Z,1483.00
2023-04-16T00:14:47.061Z,1489.00
2023-04-16T00:15:47.113Z,1479.00
2023-04-16T00:16:47.203Z,1471.00
2023-04-16T00:17:47.281Z,1458.00
2023-04-16T00:18:47.320Z,1473.00
2023-04-16T00:19:47.336Z,1472.00
2023-04-16T00:20:47.391Z,1464.00
2023-04-16T00:21:47.441Z,1464.00
2023-04-16T00:22:47.500Z,1477.00
2023-04-16T00:23:47.619Z,1472.00
2023-04-16T00:24:47.634Z,1474.00
2023-04-16T00:25:47.692Z,1474.00
2023-04-16T00:26:47.760Z,1462.00
2023-04-16T00:27:47.828Z,1457.00
2023-04-16T00:28:47.900Z,1448.00
2023-04-16T00:29:47.958Z,1454.00
2023-04-16T00:30:48.075Z,1448.00
2023-04-16T00:31:48.088Z,1453.00
2023-04-16T00:32:48.229Z,1436.00
2023-04-16T00:33:48.201Z,1430.00
2023-04-16T00:34:48.245Z,1429.00
2023-04-16T00:35:48.310Z,1445.00
2023-04-16T00:36:48.358Z,1441.00
2023-04-16T00:37:48.407Z,1443.00
2023-04-16T00:38:48.458Z,1425.00
2023-04-16T00:39:48.509Z,1431.00
2023-04-16T00:40:48.548Z,1427.00
2023-04-16T00:41:48.591Z,1425.00
2023-04-16T00:42:48.594Z,1423.00
2023-04-16T00:43:48.616Z,1436.00
2023-04-16T00:44:48.663Z,1438.00
2023-04-16T00:45:48.788Z,1432.00
2023-04-16T00:46:48.795Z,1421.00
2023-04-16T00:47:48.825Z,1418.00
2023-04-16T00:48:48.835Z,1421.00
2023-04-16T00:49:48.873Z,1419.00
2023-04-16T00:50:48.897Z,1420.00
2023-04-16T00:51:48.872Z,1422.00
2023-04-16T00:52:48.878Z,1426.00
2023-04-16T00:53:48.834Z,1425.00
2023-04-16T00:54:48.846Z,1420.00
2023-04-16T00:55:48.843Z,1421.00
2023-04-16T00:56:48.822Z,1417.00
2023-04-16T00:57:48.823Z,1428.00
2023-04-16T00:58:48.776Z,1420.00
2023-04-16T00:59:48.771Z,1422.00
2023-04-16T01:00:48.758Z,1423.00
2023-04-16T01:01:48.833Z,1422.00
2023-04-16T01:02:48.836Z,1414.00
2023-04-16T01:03:48.809Z,1421.00
2023-04-16T01:04:48.731Z,1425.00
2023-04-16T01:05:48.721Z,1417.00
2023-04-16T01:06:48.749Z,1427.00
2023-04-16T01:07:48.696Z,1417.00
2023-04-16T01:08:48.695Z,1418.00
2023-04-16T01:09:48.692Z,1408.00
2023-04-16T01:10:48.718Z,1421.00
2023-04-16T01:11:48.710Z,1438.00
2023-04-16T01:12:48.740Z,1439.00
2023-04-16T01:13:48.775Z,1449.00
2023-04-16T01:14:48.815Z,1442.00
2023-04-16T01:15:48.845Z,1443.00
2023-04-16T01:16:48.891Z,1460.00
2023-04-16T01:17:48.965Z,1469.00
2023-04-16T01:18:48.900Z,1477.00
2023-04-16T01:19:48.926Z,1485.00
2023-04-16T01:20:48.985Z,1491.00
2023-04-16T01:21:49.077Z,1504.00
2023-04-16T01:22:49.098Z,1522.00
2023-04-16T01:23:49.136Z,1539.00
2023-04-16T01:24:49.195Z,1544.00
2023-04-16T01:25:49.232Z,1549.00
2023-04-16T01:26:49.304Z,1552.00
2023-04-16T01:27:49.300Z,1561.00
2023-04-16T01:28:49.349Z,1567.00
2023-04-16T01:29:49.395Z,1573.00
2023-04-16T01:30:49.483Z,1568.00
2023-04-16T01:31:49.577Z,1578.00
2023-04-16T01:32:49.606Z,1580.00
2023-04-16T01:33:49.599Z,1590.00
2023-04-16T01:34:49.660Z,1579.00
2023-04-16T01:35:49.667Z,1583.00
2023-04-16T01:36:49.731Z,1595.00
2023-04-16T01:37:49.766Z,1597.00
2023-04-16T01:38:49.801Z,1591.00
2023-04-16T01:39:49.878Z,1591.00
2023-04-16T01:40:49.839Z,1586.00
2023-04-16T01:41:49.901Z,1575.00
2023-04-16T01:42:49.953Z,1562.00
2023-04-16T01:43:50.117Z,1561.00
2023-04-16T01:44:50.159Z,1566.00
2023-04-16T01:45:50.085Z,1563.00
2023-04-16T01:46:50.688Z,1561.00
2023-04-16T01:47:51.023Z,1563.00
2023-04-16T01:48:50.166Z,1563.00
2023-04-16T01:49:50.133Z,1566.00
2023-04-16T01:50:50.168Z,1561.00
2023-04-16T01:51:50.220Z,1563.00
2023-04-16T01:52:50.323Z,1558.00
2023-04-16T01:53:50.294Z,1562.00
2023-04-16T01:54:50.375Z,1555.00
2023-04-16T01:55:50.340Z,1557.00
2023-04-16T01:56:50.390Z,1559.00
2023-04-16T01:57:50.397Z,1573.00
2023-04-16T01:58:50.451Z,1555.00
2023-04-16T01:59:50.474Z,1564.00
2023-04-16T02:00:50.509Z,1565.00
2023-04-16T02:01:50.631Z,1558.00
2023-04-16T02:02:50.671Z,1554.00
2023-04-16T02:03:50.726Z,1563.00
2023-04-16T02:04:50.663Z,1560.00
2023-04-16T02:05:50.708Z,1546.00
2023-04-16T02:06:50.751Z,1553.00
2023-04-16T02:07:50.790Z,1556.00
2023-04-16T02:08:50.812Z,1558.00
2023-04-16T02:09:50.838Z,1565.00
2023-04-16T02:10:50.893Z,1559.00
2023-04-16T02:11:50.932Z,1565.00
2023-04-16T02:12:50.982Z,1562.00
2023-04-16T02:13:50.988Z,1564.00
2023-04-16T02:14:51.028Z,1562.00
2023-04-16T02:15:51.060Z,1562.00
2023-04-16T02:16:51.114Z,1566.00
2023-04-16T02:17:51.178Z,1568.00
2023-04-16T02:18:51.101Z,1564.00
2023-04-16T02:19:51.139Z,1561.00
2023-04-16T02:20:51.176Z,1557.00
2023-04-16T02:21:51.205Z,1564.00
2023-04-16T02:22:51.255Z,1553.00
2023-04-16T02:23:51.290Z,1563.00
2023-04-16T02:24:51.317Z,1547.00
2023-04-16T02:25:51.343Z,1565.00
2023-04-16T02:26:51.334Z,1559.00
2023-04-16T02:27:51.377Z,1557.00
2023-04-16T02:28:51.359Z,1530.00
2023-04-16T02:29:51.396Z,1547.00
2023-04-16T02:30:51.433Z,1543.00
2023-04-16T02:31:51.508Z,1535.00
2023-04-16T02:32:51.593Z,1537.00
2023-04-16T02:33:51.605Z,1532.00
2023-04-16T02:34:51.638Z,1529.00
2023-04-16T02:35:51.680Z,1524.00
2023-04-16T02:36:51.749Z,1534.00
2023-04-16T02:37:51.786Z,1539.00
2023-04-16T02:38:51.903Z,1531.00
2023-04-16T02:39:51.886Z,1524.00
2023-04-16T02:40:51.929Z,1531.00
2023-04-16T02:41:51.961Z,1520.00
2023-04-16T02:42:52.008Z,1532.00
2023-04-16T02:43:52.001Z,1533.00
2023-04-16T02:44:52.001Z,1533.00
2023-04-16T02:45:52.024Z,1532.00
2023-04-16T02:46:51.969Z,1528.00
2023-04-16T02:47:51.996Z,1527.00
2023-04-16T02:48:51.969Z,1536.00
2023-04-16T02:49:51.940Z,1527.00
2023-04-16T02:50:51.937Z,1520.00
2023-04-16T02:51:51.940Z,1533.00
2023-04-16T02:52:51.912Z,1532.00
2023-04-16T02:53:51.919Z,1515.00
2023-04-16T02:54:51.956Z,1534.00
2023-04-16T02:55:52.013Z,1522.00
2023-04-16T02:56:52.049Z,1515.00
2023-04-16T02:57:52.121Z,1512.00
2023-04-16T02:58:52.151Z,1517.00
2023-04-16T02:59:52.206Z,1523.00
2023-04-16T03:00:52.241Z,1507.00
2023-04-16T03:01:52.362Z,1516.00
2023-04-16T03:02:52.385Z,1517.00
2023-04-16T03:03:52.326Z,1511.00
2023-04-16T03:04:52.360Z,1502.00
2023-04-16T03:05:52.411Z,1517.00
2023-04-16T03:06:52.442Z,1507.00
2023-04-16T03:07:52.447Z,1496.00
2023-04-16T03:08:52.478Z,1478.00
2023-04-16T03:09:52.533Z,1483.00
2023-04-16T03:10:52.531Z,1473.00
2023-04-16T03:11:52.557Z,1484.00
2023-04-16T03:12:52.594Z,1467.00
2023-04-16T03:13:52.694Z,1471.00
2023-04-16T03:14:52.714Z,1455.00
2023-04-16T03:15:52.766Z,1453.00
2023-04-16T03:16:52.767Z,1457.00
2023-04-16T03:17:52.807Z,1456.00
2023-04-16T03:18:52.837Z,1449.00
2023-04-16T03:19:52.842Z,1448.00
2023-04-16T03:20:52.865Z,1446.00
2023-04-16T03:21:52.881Z,1451.00
2023-04-16T03:22:52.914Z,1438.00
2023-04-16T03:23:52.952Z,1434.00
2023-04-16T03:24:52.984Z,1429.00
2023-04-16T03:25:52.992Z,1427.00
2023-04-16T03:26:52.983Z,1422.00
2023-04-16T03:27:53.005Z,1419.00
2023-04-16T03:28:53.025Z,1421.00
2023-04-16T03:29:53.054Z,1413.00
2023-04-16T03:30:53.164Z,1413.00
2023-04-16T03:31:53.126Z,1408.00
2023-04-16T03:32:53.188Z,1410.00
2023-04-16T03:33:53.232Z,1416.00
2023-04-16T03:34:53.278Z,1420.00
2023-04-16T03:35:53.322Z,1410.00
2023-04-16T03:36:53.376Z,1424.00
2023-04-16T03:37:53.445Z,1409.00
2023-04-16T03:38:53.490Z,1402.00
2023-04-16T03:39:53.554Z,1415.00
2023-04-16T03:40:53.582Z,1406.00
2023-04-16T03:41:53.634Z,1396.00
2023-04-16T03:42:53.635Z,1388.00
2023-04-16T03:43:53.685Z,1397.00
2023-04-16T03:44:53.735Z,1394.00
2023-04-16T03:45:53.784Z,1397.00
2023-04-16T03:46:53.902Z,1391.00
2023-04-16T03:47:53.884Z,1394.00
2023-04-16T03:48:53.885Z,1386.00
2023-04-16T03:49:53.921Z,1380.00
2023-04-16T03:50:53.993Z,1379.00
2023-04-16T03:51:53.987Z,1397.00
2023-04-16T03:52:54.004Z,1388.00
2023-04-16T03:53:54.021Z,1386.00
2023-04-16T03:54:54.057Z,1375.00
2023-04-16T03:55:54.097Z,1376.00
2023-04-16T03:56:54.114Z,1364.00
2023-04-16T03:57:54.116Z,1366.00
2023-04-16T03:58:54.147Z,1368.00
2023-04-16T03:59:54.150Z,1361.00
2023-04-16T04:00:54.172Z,1361.00
2023-04-16T04:01:54.255Z,1360.00
2023-04-16T04:02:54.344Z,1353.00
2023-04-16T04:03:54.388Z,1349.00
2023-04-16T04:04:54.289Z,1348.00
2023-04-16T04:05:54.274Z,1343.00
2023-04-16T04:06:54.357Z,1325.00
2023-04-16T04:07:54.352Z,1340.00
2023-04-16T04:08:54.739Z,1340.00
2023-04-16T04:09:54.440Z,1331.00
2023-04-16T04:10:54.514Z,1341.00
2023-04-16T04:11:54.527Z,1338.00
2023-04-16T04:12:54.548Z,1326.00
2023-04-16T04:13:54.573Z,1338.00
2023-04-16T04:14:54.598Z,1333.00
2023-04-16T04:15:54.717Z,1329.00
2023-04-16T04:16:54.670Z,1339.00
2023-04-16T04:17:54.703Z,1337.00
2023-04-16T04:18:54.706Z,1325.00
2023-04-16T04:20:55.690Z,1321.00
2023-04-16T04:21:54.689Z,1314.00
2023-04-16T04:22:54.685Z,1190.00
2023-04-16T04:23:56.042Z,988.00
2023-04-16T04:24:54.672Z,858.00
2023-04-16T04:25:54.743Z,701.00
2023-04-16T04:26:54.676Z,628.00
2023-04-16T04:27:54.679Z,566.00
2023-04-16T04:28:54.672Z,524.00
2023-04-16T04:29:54.681Z,500.00
2023-04-16T04:30:54.676Z,498.00
2023-04-16T04:31:54.726Z,498.00
2023-04-16T04:32:54.766Z,496.00
2023-04-16T04:33:54.701Z,500.00
2023-04-16T04:34:54.684Z,506.00
2023-04-16T04:35:54.686Z,508.00
2023-04-16T04:36:54.687Z,522.00
2023-04-16T04:37:54.693Z,545.00
2023-04-16T04:38:54.711Z,567.00
2023-04-16T04:39:54.715Z,581.00
2023-04-16T04:40:54.710Z,593.00
2023-04-16T04:41:54.698Z,606.00
2023-04-16T04:42:54.692Z,623.00
2023-04-16T04:43:54.705Z,634.00
2023-04-16T04:44:54.696Z,641.00
2023-04-16T04:45:54.763Z,661.00
2023-04-16T04:46:54.703Z,691.00
2023-04-16T04:47:54.769Z,734.00
2023-04-16T04:48:54.704Z,771.00
2023-04-16T04:49:54.697Z,793.00
2023-04-16T04:50:54.696Z,808.00
2023-04-16T04:51:54.694Z,835.00
2023-04-16T04:52:54.699Z,860.00
2023-04-16T04:53:54.737Z,897.00
2023-04-16T04:54:54.680Z,918.00
2023-04-16T04:55:57.595Z,925.00
2023-04-16T04:56:55.672Z,925.00
2023-04-16T04:57:54.672Z,931.00
2023-04-16T04:58:54.676Z,941.00
2023-04-16T04:59:54.690Z,967.00
2023-04-16T05:00:54.704Z,1006.00
2023-04-16T05:01:54.687Z,1040.00
2023-04-16T05:02:54.740Z,1049.00
2023-04-16T05:03:54.733Z,1048.00
2023-04-16T05:04:54.662Z,1041.00
2023-04-16T05:05:54.650Z,941.00
2023-04-16T05:06:54.629Z,864.00
2023-04-16T05:07:54.634Z,707.00
2023-04-16T05:08:54.633Z,639.00
2023-04-16T05:09:54.685Z,585.00
2023-04-16T05:10:54.631Z,548.00
2023-04-16T05:11:54.620Z,519.00
2023-04-16T05:12:54.612Z,494.00
2023-04-16T05:13:54.630Z,500.00
2023-04-16T05:14:54.623Z,498.00
2023-04-16T05:15:54.629Z,503.00
2023-04-16T05:16:54.661Z,497.00
2023-04-16T05:17:54.689Z,500.00
2023-04-16T05:18:54.653Z,498.00
2023-04-16T05:19:54.609Z,502.00
2023-04-16T05:20:54.607Z,500.00
2023-04-16T05:21:54.624Z,500.00
2023-04-16T05:22:54.612Z,503.00
2023-04-16T05:23:54.626Z,500.00
2023-04-16T05:24:54.656Z,498.00
2023-04-16T05:25:54.709Z,500.00
2023-04-16T05:26:54.757Z,504.00
2023-04-16T05:27:54.832Z,498.00
2023-04-16T05:28:54.827Z,500.00
2023-04-16T05:29:54.879Z,509.00
2023-04-16T05:30:54.961Z,505.00
2023-04-16T05:31:54.996Z,500.00
2023-04-16T05:32:55.084Z,500.00
2023-04-16T05:33:55.114Z,501.00
2023-04-16T05:34:55.269Z,501.00
2023-04-16T05:35:55.172Z,503.00
2023-04-16T05:36:55.227Z,507.00
2023-04-16T05:37:55.280Z,506.00
2023-04-16T05:38:55.348Z,500.00
2023-04-16T05:39:55.416Z,507.00
2023-04-16T05:40:55.453Z,500.00
2023-04-16T05:41:55.509Z,502.00
2023-04-16T05:42:55.565Z,503.00
2023-04-16T05:43:55.612Z,506.00
2023-04-16T05:44:55.681Z,513.00
2023-04-16T05:45:55.776Z,524.00
2023-04-16T05:46:55.783Z,544.00
2023-04-16T05:47:55.846Z,582.00
2023-04-16T05:48:55.875Z,605.00
2023-04-16T05:49:55.936Z,625.00
2023-04-16T05:50:55.944Z,646.00
2023-04-16T05:51:56.038Z,694.00
2023-04-16T05:52:56.022Z,763.00
2023-04-16T05:53:56.058Z,804.00
2023-04-16T05:54:56.091Z,851.00
2023-04-16T05:55:56.130Z,915.00
2023-04-16T05:56:56.146Z,979.00
2023-04-16T05:57:56.167Z,1025.00
2023-04-16T05:58:56.218Z,1098.00
2023-04-16T05:59:56.279Z,1128.00
2023-04-16T06:00:56.245Z,1187.00
2023-04-16T06:01:56.279Z,1260.00
2023-04-16T06:02:56.435Z,1320.00
2023-04-16T06:03:56.356Z,1363.00
2023-04-16T06:04:56.314Z,1396.00
2023-04-16T06:05:56.570Z,1441.00
2023-04-16T06:06:56.334Z,1487.00
2023-04-16T06:07:56.348Z,1527.00
2023-04-16T06:08:56.372Z,1589.00
2023-04-16T06:09:56.383Z,1632.00
2023-04-16T06:10:56.424Z,1671.00
2023-04-16T06:11:56.401Z,1693.00
2023-04-16T06:12:56.429Z,1734.00
2023-04-16T06:13:56.433Z,1762.00
2023-04-16T06:14:56.446Z,1768.00
2023-04-16T06:15:56.499Z,1819.00
2023-04-16T06:16:56.465Z,1825.00
2023-04-16T06:17:57.219Z,1861.00
2023-04-16T06:18:56.499Z,1882.00
2023-04-16T06:19:56.515Z,1907.00
2023-04-16T06:20:56.532Z,1930.00
2023-04-16T06:21:56.527Z,1952.00
2023-04-16T06:22:56.544Z,1976.00
2023-04-16T06:23:56.562Z,1994.00
2023-04-16T06:24:56.580Z,2035.00
2023-04-16T06:25:56.579Z,2031.00
2023-04-16T06:26:56.586Z,2053.00
2023-04-16T06:27:56.592Z,2061.00
2023-04-16T06:28:56.605Z,2084.00
2023-04-16T06:29:56.610Z,2106.00
2023-04-16T06:30:56.615Z,2125.00
2023-04-16T06:31:56.673Z,2138.00
2023-04-16T06:32:56.655Z,2162.00
2023-04-16T06:33:56.642Z,2180.00
2023-04-16T06:34:56.654Z,2178.00
2023-04-16T06:35:56.648Z,2224.00
2023-04-16T06:36:56.648Z,2228.00
2023-04-16T06:37:56.657Z,2230.00
2023-04-16T06:38:56.699Z,2259.00
2023-04-16T06:39:56.696Z,2265.00
2023-04-16T06:40:56.689Z,2279.00
2023-04-16T06:41:56.670Z,2293.00
2023-04-16T06:42:56.664Z,2305.00
2023-04-16T06:43:56.681Z,2314.00
2023-04-16T06:44:56.678Z,2329.00
2023-04-16T06:45:56.687Z,2339.00
2023-04-16T06:46:56.712Z,2345.00
2023-04-16T06:47:56.706Z,2353.00
2023-04-16T06:48:56.674Z,2354.00
2023-04-16T06:49:56.676Z,2357.00
2023-04-16T06:50:56.682Z,2365.00
2023-04-16T06:51:56.679Z,2383.00
2023-04-16T06:52:56.680Z,2421.00
2023-04-16T06:53:56.676Z,2417.00
2023-04-16T06:54:56.818Z,2427.00
2023-04-16T06:55:56.654Z,2429.00
2023-04-16T06:56:56.651Z,2431.00
2023-04-16T06:57:56.653Z,2435.00
2023-04-16T06:58:56.656Z,2454.00
2023-04-16T06:59:56.649Z,2448.00
2023-04-16T07:00:56.694Z,2454.00
2023-04-16T07:01:56.676Z,2457.00
2023-04-16T07:02:58.651Z,2471.00
2023-04-16T07:03:56.819Z,2481.00
2023-04-16T07:04:56.616Z,2484.00
2023-04-16T07:05:56.608Z,2488.00
2023-04-16T07:06:56.599Z,2485.00
2023-04-16T07:07:56.599Z,2499.00
2023-04-16T07:08:56.606Z,2497.00
2023-04-16T07:09:56.592Z,2504.00
2023-04-16T07:10:56.580Z,2510.00
2023-04-16T07:11:56.576Z,2515.00
2023-04-16T07:12:56.580Z,2519.00
2023-04-16T07:13:56.562Z,2520.00
2023-04-16T07:14:56.590Z,2520.00
2023-04-16T07:15:56.582Z,2528.00
2023-04-16T07:16:56.608Z,2533.00
2023-04-16T07:17:56.608Z,2557.00
2023-04-16T07:18:56.552Z,2561.00
2023-04-16T07:19:56.540Z,2557.00
2023-04-16T07:20:56.590Z,2451.00
2023-04-16T07:21:56.530Z,2242.00
2023-04-16T07:22:56.535Z,2065.00
2023-04-16T07:23:56.536Z,1979.00
2023-04-16T07:24:56.534Z,1853.00
2023-04-16T07:25:56.528Z,1748.00
2023-04-16T07:26:56.505Z,1645.00
2023-04-16T07:27:56.488Z,1550.00
2023-04-16T07:28:56.482Z,1452.00
2023-04-16T07:29:56.490Z,1403.00
2023-04-16T07:30:56.510Z,1353.00
2023-04-16T07:31:56.515Z,1259.00
2023-04-16T07:32:56.587Z,1210.00
2023-04-16T07:33:56.477Z,1152.00
2023-04-16T07:34:56.467Z,1087.00
2023-04-16T07:35:56.473Z,1031.00
2023-04-16T07:36:56.501Z,963.00
2023-04-16T07:37:56.466Z,897.00
2023-04-16T07:38:56.481Z,846.00
2023-04-16T07:39:57.472Z,826.00
2023-04-16T07:40:56.485Z,808.00
2023-04-16T07:41:56.468Z,842.00
2023-04-16T07:42:56.483Z,914.00
2023-04-16T07:43:56.473Z,968.00
2023-04-16T07:44:56.474Z,992.00
2023-04-16T07:45:56.495Z,1040.00
2023-04-16T07:46:56.545Z,1097.00
2023-04-16T07:47:56.615Z,1161.00
2023-04-16T07:48:56.501Z,1195.00
2023-04-16T07:49:56.483Z,1197.00
2023-04-16T07:50:56.500Z,1209.00
2023-04-16T07:51:56.486Z,1243.00
2023-04-16T07:52:56.489Z,1316.00
2023-04-16T07:53:56.487Z,1424.00
2023-04-16T07:54:56.470Z,1461.00
2023-04-16T07:55:56.488Z,1499.00
2023-04-16T07:56:56.483Z,1542.00
2023-04-16T07:57:56.461Z,1586.00
2023-04-16T07:58:56.778Z,1629.00
2023-04-16T07:59:56.436Z,1652.00
2023-04-16T08:00:56.443Z,1705.00
2023-04-16T08:01:56.499Z,1723.00
2023-04-16T08:02:56.539Z,1753.00
2023-04-16T08:03:56.564Z,1779.00
2023-04-16T08:04:56.499Z,1803.00
2023-04-16T08:05:56.406Z,1846.00
2023-04-16T08:06:56.440Z,1856.00
2023-04-16T08:07:56.379Z,1878.00
2023-04-16T08:08:56.376Z,1896.00
2023-04-16T08:09:56.375Z,1916.00
2023-04-16T08:10:56.376Z,1915.00
2023-04-16T08:11:56.372Z,1869.00
2023-04-16T08:12:56.353Z,1763.00
2023-04-16T08:13:56.351Z,1592.00
2023-04-16T08:14:56.347Z,1519.00
2023-04-16T08:15:56.371Z,1396.00
2023-04-16T08:16:56.352Z,1332.00
2023-04-16T08:17:56.380Z,1284.00
2023-04-16T08:18:56.339Z,1216.00
2023-04-16T08:19:56.328Z,1140.00
2023-04-16T08:20:56.329Z,1050.00
2023-04-16T08:21:56.330Z,1013.00
2023-04-16T08:22:56.339Z,932.00
2023-04-16T08:23:56.331Z,889.00
2023-04-16T08:24:56.313Z,850.00
2023-04-16T08:25:56.309Z,780.00
2023-04-16T08:27:02.455Z,771.00
2023-04-16T08:27:57.305Z,746.00
2023-04-16T08:28:56.300Z,701.00
2023-04-16T08:29:56.310Z,662.00
2023-04-16T08:30:56.332Z,647.00
2023-04-16T08:31:56.351Z,628.00
2023-04-16T08:32:56.378Z,604.00
2023-04-16T08:33:56.331Z,602.00
2023-04-16T08:34:56.330Z,580.00
2023-04-16T08:35:56.324Z,580.00
2023-04-16T08:36:56.319Z,572.00
2023-04-16T08:37:56.300Z,572.00
2023-04-16T08:38:56.322Z,581.00
2023-04-16T08:39:56.356Z,582.00
2023-04-16T08:40:56.304Z,589.00
2023-04-16T08:41:56.296Z,608.00
2023-04-16T08:42:56.297Z,644.00
2023-04-16T08:43:56.291Z,741.00
2023-04-16T08:44:56.280Z,586.00
2023-04-16T08:45:56.293Z,603.00
2023-04-16T08:46:56.296Z,639.00
2023-04-16T08:47:56.293Z,746.00
2023-04-16T08:48:56.265Z,953.00
2023-04-16T08:49:57.885Z,1028.00
2023-04-16T08:50:56.245Z,1084.00
2023-04-16T08:51:56.237Z,1125.00
2023-04-16T08:52:56.243Z,1127.00
2023-04-16T08:53:56.228Z,1141.00
2023-04-16T08:54:56.210Z,1176.00
2023-04-16T08:55:56.209Z,1240.00
2023-04-16T08:56:56.216Z,1375.00
2023-04-16T08:57:56.225Z,1411.00
2023-04-16T08:58:56.191Z,1453.00
2023-04-16T08:59:56.165Z,1489.00
2023-04-16T09:00:56.163Z,1534.00
2023-04-16T09:01:56.252Z,1585.00
2023-04-16T09:02:56.421Z,1609.00
2023-04-16T09:03:56.296Z,1636.00
2023-04-16T09:04:56.211Z,1665.00
2023-04-16T09:05:56.093Z,1693.00
2023-04-16T09:06:56.099Z,1737.00
2023-04-16T09:07:56.084Z,1769.00
2023-04-16T09:08:56.065Z,1791.00
2023-04-16T09:09:56.121Z,1854.00
2023-04-16T09:10:56.175Z,1869.00
2023-04-16T09:11:56.309Z,1908.00
2023-04-16T09:12:56.267Z,1942.00
2023-04-16T09:13:56.309Z,1974.00
2023-04-16T09:14:56.361Z,2014.00
2023-04-16T09:15:56.423Z,2025.00
2023-04-16T09:16:56.482Z,2065.00
2023-04-16T09:17:56.587Z,2100.00
2023-04-16T09:18:56.538Z,2134.00
2023-04-16T09:19:56.575Z,2162.00
2023-04-16T09:20:56.615Z,2180.00
2023-04-16T09:21:56.651Z,2213.00
2023-04-16T09:22:56.712Z,2238.00
2023-04-16T09:23:56.736Z,2266.00
2023-04-16T09:24:56.778Z,2288.00
2023-04-16T09:25:56.807Z,2304.00
2023-04-16T09:26:56.858Z,2324.00
2023-04-16T09:27:56.903Z,2375.00
2023-04-16T09:28:56.915Z,2387.00
2023-04-16T09:29:56.936Z,2410.00
2023-04-16T09:30:56.974Z,2434.00
2023-04-16T09:31:57.042Z,2459.00
2023-04-16T09:32:57.086Z,2471.00
2023-04-16T09:33:57.073Z,2500.00
2023-04-16T09:34:57.139Z,2495.00
2023-04-16T09:35:57.121Z,2513.00
2023-04-16T09:36:57.171Z,2538.00
2023-04-16T09:37:57.237Z,2545.00
2023-04-16T09:38:57.839Z,2540.00
2023-04-16T09:39:57.252Z,2565.00
2023-04-16T09:40:57.279Z,2577.00
2023-04-16T09:41:57.327Z,2586.00
2023-04-16T09:42:57.338Z,2604.00
2023-04-16T09:43:57.370Z,2608.00
2023-04-16T09:45:00.301Z,2598.00
2023-04-16T09:45:57.420Z,2599.00
2023-04-16T09:46:57.371Z,2603.00
2023-04-16T09:47:57.362Z,2609.00
2023-04-16T09:48:57.336Z,2634.00
2023-04-16T09:49:57.306Z,2627.00
2023-04-16T09:50:57.294Z,2658.00
2023-04-16T09:51:57.274Z,2666.00
2023-04-16T09:52:57.271Z,2681.00
2023-04-16T09:53:57.239Z,2686.00
2023-04-16T09:54:57.213Z,2648.00
2023-04-16T09:55:57.206Z,2649.00
2023-04-16T09:56:57.180Z,2656.00
2023-04-16T09:57:57.156Z,2671.00
2023-04-16T09:58:57.129Z,2676.00
2023-04-16T09:59:57.125Z,2728.00
2023-04-16T10:00:57.138Z,2723.00
2023-04-16T10:02:12.264Z,2710.00
2023-04-16T10:02:58.125Z,2712.00
2023-04-16T10:03:57.092Z,2713.00
2023-04-16T10:04:57.052Z,2714.00
2023-04-16T10:05:57.022Z,2735.00
2023-04-16T10:06:56.995Z,2713.00
2023-04-16T10:07:56.961Z,2767.00
2023-04-16T10:08:56.971Z,2749.00
2023-04-16T10:09:56.915Z,2761.00
2023-04-16T10:10:56.900Z,2724.00
2023-04-16T10:11:56.861Z,2720.00
2023-04-16T10:12:56.837Z,2759.00
2023-04-16T10:13:56.832Z,2759.00
2023-04-16T10:14:56.800Z,2747.00
2023-04-16T10:15:56.772Z,2762.00
2023-04-16T10:16:56.864Z,2735.00
2023-04-16T10:17:56.841Z,2762.00
2023-04-16T10:18:56.718Z,2763.00
2023-04-16T10:19:56.687Z,2766.00
2023-04-16T10:20:56.674Z,2768.00
2023-04-16T10:21:56.669Z,2768.00
2023-04-16T10:22:56.639Z,2772.00
2023-04-16T10:23:56.630Z,2789.00
2023-04-16T10:24:56.603Z,2805.00
2023-04-16T10:25:57.606Z,2789.00
2023-04-16T10:26:56.582Z,2825.00
2023-04-16T10:27:56.539Z,2832.00
2023-04-16T10:28:56.523Z,2833.00
2023-04-16T10:29:56.490Z,2839.00
2023-04-16T10:30:56.522Z,2826.00
2023-04-16T10:31:56.447Z,2856.00
2023-04-16T10:32:58.288Z,2868.00
2023-04-16T10:33:56.397Z,2865.00
2023-04-16T10:34:56.393Z,2851.00
2023-04-16T10:36:07.122Z,2875.00
2023-04-16T10:36:57.341Z,2870.00
2023-04-16T10:37:56.319Z,2877.00
2023-04-16T10:38:56.292Z,2887.00
2023-04-16T10:39:56.260Z,2880.00
2023-04-16T10:40:56.242Z,2908.00
2023-04-16T10:41:56.239Z,2931.00
2023-04-16T10:42:56.210Z,2932.00
2023-04-16T10:43:56.177Z,2936.00
2023-04-16T10:44:56.164Z,2922.00
2023-04-16T10:45:56.186Z,2933.00
2023-04-16T10:46:56.133Z,2931.00
2023-04-16T10:47:56.159Z,2933.00
2023-04-16T10:48:56.094Z,2951.00
2023-04-16T10:49:56.065Z,2971.00
2023-04-16T10:50:56.028Z,2937.00
2023-04-16T10:51:56.006Z,2947.00
2023-04-16T10:52:56.000Z,2958.00
2023-04-16T10:53:55.956Z,2949.00
2023-04-16T10:54:55.936Z,2942.00
2023-04-16T10:55:55.908Z,2942.00
2023-04-16T10:56:55.911Z,2929.00
2023-04-16T10:57:55.875Z,2960.00
2023-04-16T10:58:55.862Z,2929.00
2023-04-16T10:59:55.845Z,2935.00
2023-04-16T11:00:55.869Z,2957.00
2023-04-16T11:01:56.030Z,2914.00
2023-04-16T11:02:55.964Z,2922.00
2023-04-16T11:03:56.049Z,2910.00
2023-04-16T11:04:55.993Z,2909.00
2023-04-16T11:05:55.934Z,2904.00
2023-04-16T11:06:55.947Z,2900.00
2023-04-16T11:07:55.959Z,2880.00
2023-04-16T11:08:55.962Z,2894.00
2023-04-16T11:09:56.047Z,2875.00
2023-04-16T11:10:56.000Z,2901.00
2023-04-16T11:11:56.031Z,2878.00
2023-04-16T11:12:56.049Z,2843.00
2023-04-16T11:13:56.046Z,2852.00
2023-04-16T11:14:56.066Z,2800.00
2023-04-16T11:15:56.125Z,2836.00
2023-04-16T11:16:56.146Z,2829.00
2023-04-16T11:17:56.147Z,2812.00
2023-04-16T11:18:56.862Z,2782.00
2023-04-16T11:19:56.154Z,2767.00
2023-04-16T11:20:56.172Z,2770.00
2023-04-16T11:21:56.325Z,2730.00
2023-04-16T11:22:56.191Z,2708.00
2023-04-16T11:23:56.198Z,2707.00
2023-04-16T11:24:56.250Z,2688.00
2023-04-16T11:25:56.248Z,2681.00
2023-04-16T11:26:56.239Z,2686.00
2023-04-16T11:27:56.276Z,2707.00
2023-04-16T11:28:56.302Z,2678.00
2023-04-16T11:29:56.251Z,2680.00
2023-04-16T11:30:56.247Z,2685.00
2023-04-16T11:31:56.208Z,2698.00
2023-04-16T11:32:56.288Z,2709.00
2023-04-16T11:33:56.170Z,2714.00
2023-04-16T11:34:56.146Z,2730.00
2023-04-16T11:35:56.140Z,2731.00
2023-04-16T11:36:56.103Z,2737.00
2023-04-16T11:37:56.117Z,2725.00
2023-04-16T11:38:56.109Z,2747.00
2023-04-16T11:39:56.061Z,2747.00
2023-04-16T11:40:56.047Z,2725.00
2023-04-16T11:41:56.104Z,2744.00
2023-04-16T11:42:56.848Z,2756.00
2023-04-16T11:43:55.999Z,2771.00
2023-04-16T11:44:55.987Z,2763.00
2023-04-16T11:45:55.981Z,2771.00
2023-04-16T11:46:55.966Z,2772.00
2023-04-16T11:47:56.002Z,2775.00
2023-04-16T11:49:07.380Z,2775.00
2023-04-16T11:49:56.908Z,2772.00
2023-04-16T11:50:55.886Z,2775.00
2023-04-16T11:51:55.862Z,2788.00
2023-04-16T11:52:55.852Z,2816.00
2023-04-16T11:53:55.840Z,2811.00
2023-04-16T11:54:55.810Z,2808.00
2023-04-16T11:55:55.809Z,2824.00
2023-04-16T11:56:55.776Z,2818.00
2023-04-16T11:57:55.749Z,2825.00
2023-04-16T11:58:55.737Z,2833.00
2023-04-16T12:00:02.532Z,2821.00
2023-04-16T12:00:56.691Z,2822.00
2023-04-16T12:01:55.870Z,2828.00
2023-04-16T12:02:55.999Z,2826.00
2023-04-16T12:03:55.901Z,2855.00
2023-04-16T12:04:55.717Z,2874.00
2023-04-16T12:05:55.586Z,2874.00
2023-04-16T12:06:55.561Z,2862.00
2023-04-16T12:07:55.944Z,2867.00
2023-04-16T12:08:55.527Z,2853.00
2023-04-16T12:09:55.530Z,2860.00
2023-04-16T12:10:55.549Z,2846.00